createdAt,value
2022-11-25T00:01:09.789Z,31.55
2022-11-25T00:03:36.701Z,29.63
2022-11-25T00:06:10.231Z,27.67
2022-11-25T00:08:37.428Z,29.42
2022-11-25T00:11:05.149Z,31.33
2022-11-25T00:13:32.307Z,30.17
2022-11-25T00:16:11.663Z,29.52
2022-11-25T00:18:38.802Z,29.17
2022-11-25T00:21:08.266Z,29.23
2022-11-25T00:23:35.879Z,29.48
2022-11-25T00:26:16.535Z,28.92
2022-11-25T00:28:45.953Z,30.60
2022-11-25T00:31:27.222Z,32.10
2022-11-25T00:33:54.001Z,31.20
2022-11-25T00:36:21.613Z,30.60
2022-11-25T00:38:52.521Z,31.83
2022-11-25T00:41:37.299Z,31.05
2022-11-25T00:44:22.664Z,30.63
2022-11-25T00:46:49.175Z,31.27
2022-11-25T00:49:15.682Z,27.90
2022-11-25T00:51:42.105Z,29.15
2022-11-25T00:54:08.523Z,33.10
2022-11-25T00:56:35.000Z,33.70
2022-11-25T00:59:01.464Z,29.23
2022-11-25T01:01:27.991Z,29.27
2022-11-25T01:03:54.525Z,30.45
2022-11-25T01:06:22.051Z,29.75
2022-11-25T01:08:48.906Z,31.92
2022-11-25T01:11:18.381Z,36.25
2022-11-25T01:13:45.160Z,33.90
2022-11-25T01:16:17.194Z,32.25
2022-11-25T01:18:44.049Z,31.67
2022-11-25T01:21:13.210Z,32.38
2022-11-25T01:23:40.701Z,31.65
2022-11-25T01:26:11.304Z,33.40
2022-11-25T01:28:37.739Z,31.00
2022-11-25T01:31:12.904Z,28.27
2022-11-25T01:33:43.496Z,30.60
2022-11-25T01:36:19.378Z,28.02
2022-11-25T01:38:49.681Z,29.23
2022-11-25T01:41:16.176Z,29.80
2022-11-25T01:43:42.656Z,29.23
2022-11-25T01:46:10.696Z,28.77
2022-11-25T01:48:49.321Z,31.35
2022-11-25T01:51:43.926Z,29.27
2022-11-25T01:54:14.031Z,30.88
2022-11-25T01:56:47.008Z,29.42
2022-11-25T01:59:13.989Z,28.60
2022-11-25T02:01:40.510Z,29.60
2022-11-25T02:04:10.977Z,28.67
2022-11-25T02:07:00.831Z,31.00
2022-11-25T02:09:27.733Z,29.15
2022-11-25T02:11:54.602Z,31.02
2022-11-25T02:14:23.085Z,28.05
2022-11-25T02:16:49.659Z,28.13
2022-11-25T02:19:43.073Z,28.95
2022-11-25T02:22:15.481Z,29.30
2022-11-25T02:24:46.139Z,28.10
2022-11-25T02:27:12.995Z,31.17
2022-11-25T02:29:40.201Z,29.02
2022-11-25T02:32:06.784Z,28.38
2022-11-25T02:34:33.402Z,30.50
2022-11-25T02:37:00.660Z,27.95
2022-11-25T02:39:28.078Z,30.58
2022-11-25T02:41:58.619Z,29.95
2022-11-25T02:44:25.039Z,29.20
2022-11-25T02:46:51.469Z,29.20
2022-11-25T02:49:17.931Z,27.92
2022-11-25T02:51:45.317Z,28.83
2022-11-25T02:54:13.546Z,28.10
2022-11-25T02:56:40.542Z,27.95
2022-11-25T02:59:07.853Z,27.25
2022-11-25T03:01:35.361Z,30.02
2022-11-25T03:04:02.286Z,29.88
2022-11-25T03:06:29.768Z,28.30
2022-11-25T03:08:57.005Z,28.73
2022-11-25T03:11:46.724Z,26.17
2022-11-25T03:14:13.353Z,25.60
2022-11-25T03:16:39.893Z,26.92
2022-11-25T03:19:06.731Z,29.80
2022-11-25T03:21:33.179Z,29.83
2022-11-25T03:24:00.079Z,29.05
2022-11-25T03:26:26.703Z,28.67
2022-11-25T03:28:53.230Z,29.60
2022-11-25T03:31:19.787Z,28.08
2022-11-25T03:33:46.331Z,27.27
2022-11-25T03:36:12.765Z,27.83
2022-11-25T03:38:39.178Z,28.05
2022-11-25T03:41:06.800Z,26.52
2022-11-25T03:43:33.246Z,28.33
2022-11-25T03:45:59.701Z,29.73
2022-11-25T03:48:26.174Z,29.08
2022-11-25T03:50:52.644Z,28.13
2022-11-25T03:53:19.147Z,29.05
2022-11-25T03:55:47.979Z,26.55
2022-11-25T03:58:14.435Z,30.00
2022-11-25T04:00:40.880Z,26.02
2022-11-25T04:03:07.318Z,30.13
2022-11-25T04:05:33.763Z,26.00
2022-11-25T04:08:00.238Z,28.27
2022-11-25T04:10:26.784Z,26.42
2022-11-25T04:12:54.098Z,29.00
2022-11-25T04:15:20.561Z,27.40
2022-11-25T04:17:47.113Z,28.67
2022-11-25T04:20:14.860Z,31.27
2022-11-25T04:22:41.657Z,29.60
2022-11-25T04:25:09.265Z,30.40
2022-11-25T04:27:35.742Z,31.85
2022-11-25T04:30:02.171Z,28.75
2022-11-25T04:32:28.675Z,29.55
2022-11-25T04:34:55.173Z,29.50
2022-11-25T04:37:21.766Z,29.42
2022-11-25T04:39:48.429Z,28.60
2022-11-25T04:42:32.667Z,34.92
2022-11-25T04:45:21.420Z,31.73
2022-11-25T04:47:46.537Z,32.05
2022-11-25T04:50:16.260Z,32.65
2022-11-25T04:52:42.657Z,30.92
2022-11-25T04:55:09.688Z,31.92
2022-11-25T04:57:36.337Z,34.38
2022-11-25T05:00:04.012Z,32.42
2022-11-25T05:02:30.536Z,32.50
2022-11-25T05:04:57.600Z,31.10
2022-11-25T05:07:26.010Z,34.40
2022-11-25T05:09:52.549Z,33.63
2022-11-25T05:12:23.058Z,36.78
2022-11-25T05:14:49.944Z,34.97
2022-11-25T05:17:19.672Z,34.20
2022-11-25T05:19:46.141Z,37.65
2022-11-25T05:22:24.653Z,38.05
2022-11-25T05:24:51.589Z,35.08
2022-11-25T05:27:18.400Z,39.35
2022-11-25T05:29:44.996Z,43.13
2022-11-25T05:32:12.167Z,38.60
2022-11-25T05:34:39.042Z,39.17
2022-11-25T05:37:06.347Z,35.60
2022-11-25T05:39:32.947Z,35.05
2022-11-25T05:41:59.489Z,35.17
2022-11-25T05:44:26.287Z,32.83
2022-11-25T05:46:53.139Z,31.85
2022-11-25T05:49:19.940Z,30.13
2022-11-25T05:51:46.719Z,31.33
2022-11-25T05:54:13.792Z,29.98
2022-11-25T05:56:40.736Z,30.70
2022-11-25T05:59:07.434Z,32.08
2022-11-25T06:01:34.238Z,33.97
2022-11-25T06:04:01.332Z,36.08
2022-11-25T06:06:28.075Z,33.20
2022-11-25T06:08:54.570Z,36.97
2022-11-25T06:11:21.213Z,32.60
2022-11-25T06:13:47.656Z,35.83
2022-11-25T06:16:20.168Z,32.83
2022-11-25T06:18:46.732Z,33.42
2022-11-25T06:21:13.628Z,34.92
2022-11-25T06:23:40.672Z,33.42
2022-11-25T06:26:15.718Z,38.20
2022-11-25T06:28:42.444Z,36.33
2022-11-25T06:31:15.848Z,34.67
2022-11-25T06:33:42.406Z,32.80
2022-11-25T06:36:16.890Z,40.50
2022-11-25T06:38:52.335Z,41.00
2022-11-25T06:41:19.882Z,42.35
2022-11-25T06:43:46.404Z,37.70
2022-11-25T06:46:19.680Z,40.83
2022-11-25T06:48:49.575Z,41.35
2022-11-25T06:51:16.832Z,41.25
2022-11-25T06:53:44.047Z,41.75
2022-11-25T06:56:16.244Z,39.55
2022-11-25T06:58:43.706Z,36.47
2022-11-25T07:01:22.955Z,39.30
2022-11-25T07:03:52.173Z,36.90
2022-11-25T07:06:20.374Z,40.55
2022-11-25T07:08:47.874Z,40.58
2022-11-25T07:11:20.619Z,40.88
2022-11-25T07:13:48.070Z,39.53
2022-11-25T07:16:15.240Z,36.15
2022-11-25T07:18:42.669Z,36.17
2022-11-25T07:21:14.899Z,36.00
2022-11-25T07:23:42.993Z,39.25
2022-11-25T07:26:12.323Z,40.10
2022-11-25T07:28:39.566Z,37.83
2022-11-25T07:31:31.146Z,39.47
2022-11-25T07:34:04.480Z,44.42
2022-11-25T07:36:33.133Z,40.72
2022-11-25T07:39:02.701Z,44.83
2022-11-25T07:41:29.349Z,45.58
2022-11-25T07:43:58.417Z,46.03
2022-11-25T07:46:34.040Z,46.00
2022-11-25T07:49:03.327Z,44.60
2022-11-25T07:51:38.209Z,43.72
2022-11-25T07:54:07.663Z,42.97
2022-11-25T07:56:36.497Z,44.25
2022-11-25T07:59:03.092Z,44.72
2022-11-25T08:01:29.927Z,47.65
2022-11-25T08:03:56.822Z,46.88
2022-11-25T08:06:26.600Z,46.60
2022-11-25T08:08:55.446Z,47.30
2022-11-25T08:11:28.013Z,48.00
2022-11-25T08:13:55.271Z,47.00
2022-11-25T08:16:24.073Z,48.75
2022-11-25T08:18:50.800Z,47.00
2022-11-25T08:21:18.292Z,49.97
2022-11-25T08:23:47.486Z,50.80
2022-11-25T08:26:17.201Z,50.33
2022-11-25T08:28:43.946Z,50.55
2022-11-25T08:31:14.773Z,51.03
2022-11-25T08:33:41.879Z,51.78
2022-11-25T08:36:08.822Z,49.63
2022-11-25T08:38:35.969Z,50.22
2022-11-25T08:41:02.894Z,49.97
2022-11-25T08:43:29.805Z,52.75
2022-11-25T08:45:57.094Z,50.50
2022-11-25T08:48:24.139Z,50.03
2022-11-25T08:50:53.796Z,50.17
2022-11-25T08:53:21.865Z,54.60
2022-11-25T08:55:49.454Z,57.83
2022-11-25T08:58:15.982Z,52.05
2022-11-25T09:00:43.965Z,57.45
2022-11-25T09:03:10.979Z,53.78
2022-11-25T09:05:42.815Z,54.25
2022-11-25T09:08:10.732Z,54.38
2022-11-25T09:10:39.147Z,53.75
2022-11-25T09:13:06.065Z,55.35
2022-11-25T09:15:32.970Z,56.17
2022-11-25T09:18:01.706Z,53.75
2022-11-25T09:20:28.540Z,50.30
2022-11-25T09:22:55.488Z,46.63
2022-11-25T09:25:22.888Z,45.10
2022-11-25T09:27:49.370Z,49.10
2022-11-25T09:30:16.306Z,42.63
2022-11-25T09:32:43.357Z,42.85
2022-11-25T09:35:10.606Z,41.83
2022-11-25T09:37:37.202Z,41.38
2022-11-25T09:40:04.689Z,42.47
2022-11-25T09:43:07.455Z,45.08
2022-11-25T09:45:57.277Z,41.28
2022-11-25T09:48:29.615Z,38.90
2022-11-25T09:51:14.197Z,42.88
2022-11-25T09:53:43.628Z,37.45
2022-11-25T09:56:34.749Z,42.22
2022-11-25T09:59:14.474Z,38.60
2022-11-25T10:02:12.510Z,35.55
2022-11-25T10:04:54.665Z,36.88
2022-11-25T10:07:33.109Z,36.00
2022-11-25T10:10:03.461Z,36.63
2022-11-25T10:12:36.126Z,38.08
2022-11-25T10:15:12.097Z,38.72
2022-11-25T10:17:45.526Z,39.92
2022-11-25T10:20:19.620Z,39.42
2022-11-25T10:22:51.927Z,35.35
2022-11-25T10:25:25.189Z,39.88
2022-11-25T10:28:04.666Z,38.97
2022-11-25T10:30:40.704Z,36.10
2022-11-25T10:33:20.891Z,45.38
2022-11-25T10:36:08.116Z,38.75
2022-11-25T10:38:59.885Z,41.08
2022-11-25T10:41:30.236Z,35.95
2022-11-25T10:43:57.126Z,36.95
2022-11-25T10:47:14.246Z,36.58
2022-11-25T10:50:08.822Z,32.20
2022-11-25T10:52:44.313Z,32.15
2022-11-25T10:55:14.811Z,31.55
2022-11-25T10:57:42.197Z,30.47
2022-11-25T11:00:25.871Z,32.53
2022-11-25T11:02:53.665Z,33.15
2022-11-25T11:05:29.784Z,31.73
2022-11-25T11:08:35.309Z,32.97
2022-11-25T11:11:18.726Z,32.40
2022-11-25T11:13:46.220Z,32.53
2022-11-25T11:16:45.444Z,31.10
2022-11-25T11:19:29.881Z,32.95
2022-11-25T11:22:15.582Z,32.08
2022-11-25T11:24:42.548Z,30.13
2022-11-25T11:27:21.383Z,24.67
2022-11-25T11:29:47.864Z,18.60
2022-11-25T11:32:25.243Z,20.52
2022-11-25T11:35:14.162Z,21.45
2022-11-25T11:37:45.901Z,22.20
2022-11-25T11:40:35.477Z,23.50
2022-11-25T11:43:49.461Z,21.38
2022-11-25T11:46:18.703Z,22.73
2022-11-25T11:48:53.481Z,24.23
2022-11-25T11:51:31.738Z,24.17
2022-11-25T11:54:30.522Z,23.33
2022-11-25T11:57:02.225Z,26.05
2022-11-25T11:59:37.752Z,22.77
2022-11-25T12:02:31.048Z,23.52
2022-11-25T12:05:06.375Z,27.10
2022-11-25T12:07:38.544Z,24.05
2022-11-25T12:10:13.694Z,23.42
2022-11-25T12:12:48.936Z,24.92
2022-11-25T12:15:33.446Z,23.60
2022-11-25T12:18:09.923Z,21.75
2022-11-25T12:20:40.142Z,24.92
2022-11-25T12:23:18.588Z,25.05
2022-11-25T12:25:47.694Z,23.83
2022-11-25T12:28:29.946Z,23.70
2022-11-25T12:31:31.828Z,27.42
2022-11-25T12:34:08.070Z,25.73
2022-11-25T12:36:40.451Z,29.30
2022-11-25T12:39:23.656Z,29.33
2022-11-25T12:42:01.130Z,27.08
2022-11-25T12:44:48.360Z,28.05
2022-11-25T12:47:14.845Z,27.95
2022-11-25T12:49:48.197Z,28.15
2022-11-25T12:52:22.075Z,30.67
2022-11-25T12:55:07.293Z,28.58
2022-11-25T12:58:08.642Z,31.60
2022-11-25T13:01:03.434Z,31.05
2022-11-25T13:04:14.697Z,31.88
2022-11-25T13:06:59.406Z,32.78
2022-11-25T13:09:47.836Z,33.72
2022-11-25T13:12:48.660Z,36.60
2022-11-25T13:15:25.137Z,31.95
2022-11-25T13:17:57.635Z,35.22
2022-11-25T13:20:26.998Z,33.17
2022-11-25T13:23:07.626Z,32.55
2022-11-25T13:25:35.424Z,35.03
2022-11-25T13:28:04.926Z,34.40
2022-11-25T13:30:34.129Z,33.67
2022-11-25T13:33:09.665Z,34.47
2022-11-25T13:35:39.503Z,34.05
2022-11-25T13:38:29.038Z,36.08
2022-11-25T13:41:22.087Z,38.20
2022-11-25T13:44:03.570Z,38.85
2022-11-25T13:49:51.812Z,35.75
2022-11-25T13:52:18.170Z,38.53
2022-11-25T13:54:53.727Z,39.88
2022-11-25T13:57:38.106Z,37.75
2022-11-25T14:00:33.197Z,40.33
2022-11-25T14:03:18.470Z,43.58
2022-11-25T14:06:28.190Z,37.70
2022-11-25T14:09:03.628Z,41.10
2022-11-25T14:11:47.107Z,39.10
2022-11-25T14:14:32.361Z,39.13
2022-11-25T14:17:31.172Z,37.47
2022-11-25T14:20:10.676Z,39.10
2022-11-25T14:23:20.960Z,41.20
2022-11-25T14:25:57.649Z,40.17
2022-11-25T14:28:41.967Z,41.08
2022-11-25T14:31:16.287Z,41.80
2022-11-25T14:33:56.891Z,43.17
2022-11-25T14:36:41.789Z,45.80
2022-11-25T14:39:46.801Z,43.67
2022-11-25T14:42:21.179Z,43.55
2022-11-25T14:44:50.865Z,45.50
2022-11-25T14:47:25.265Z,45.80
2022-11-25T14:52:47.082Z,43.78
2022-11-25T14:55:24.693Z,45.35
2022-11-25T14:57:52.176Z,45.72
2022-11-25T15:00:18.908Z,44.38
2022-11-25T15:02:53.813Z,46.70
2022-11-25T15:05:23.071Z,43.67
2022-11-25T15:08:04.231Z,43.85
2022-11-25T15:10:51.508Z,46.90
2022-11-25T15:13:44.799Z,46.72
2022-11-25T15:16:15.743Z,45.88
2022-11-25T15:18:55.992Z,51.38
2022-11-25T15:21:29.123Z,46.65
2022-11-25T15:23:56.093Z,47.63
2022-11-25T15:26:24.844Z,47.90
2022-11-25T15:28:58.964Z,45.15
2022-11-25T15:31:34.350Z,47.22
2022-11-25T15:34:04.683Z,44.03
2022-11-25T15:36:31.523Z,46.38
2022-11-25T15:39:18.949Z,43.40
2022-11-25T15:41:48.410Z,45.13
2022-11-25T15:44:28.658Z,44.35
2022-11-25T15:47:02.698Z,49.55
2022-11-25T15:49:30.047Z,47.55
2022-11-25T15:52:06.989Z,48.78
2022-11-25T15:54:40.255Z,52.00
2022-11-25T15:57:15.700Z,50.30
2022-11-25T16:00:23.078Z,54.47
2022-11-25T16:02:52.636Z,52.33
2022-11-25T16:05:35.139Z,52.03
2022-11-25T16:08:18.049Z,50.70
2022-11-25T16:10:44.424Z,48.10
2022-11-25T16:13:23.358Z,48.92
2022-11-25T16:15:58.653Z,52.53
2022-11-25T16:18:51.542Z,52.60
2022-11-25T16:21:22.244Z,52.97
2022-11-25T16:23:52.500Z,54.00
2022-11-25T16:26:27.756Z,48.83
2022-11-25T16:28:56.614Z,55.05
2022-11-25T16:31:24.128Z,49.60
2022-11-25T16:34:01.568Z,54.60
2022-11-25T16:36:27.981Z,55.47
2022-11-25T16:38:54.508Z,50.85
2022-11-25T16:41:24.546Z,50.13
2022-11-25T16:43:51.688Z,53.28
2022-11-25T16:46:19.879Z,56.28
2022-11-25T16:48:47.243Z,53.55
2022-11-25T16:51:19.615Z,54.08
2022-11-25T16:53:47.081Z,53.05
2022-11-25T16:56:34.967Z,54.35
2022-11-25T16:59:02.880Z,53.42
2022-11-25T17:01:30.876Z,51.22
2022-11-25T17:03:57.648Z,53.15
2022-11-25T17:06:25.934Z,56.67
2022-11-25T17:08:52.798Z,61.80
2022-11-25T17:11:32.377Z,65.15
2022-11-25T17:14:02.737Z,64.60
2022-11-25T17:16:30.112Z,81.38
2022-11-25T17:18:58.522Z,74.25
2022-11-25T17:21:27.839Z,74.60
2022-11-25T17:23:59.599Z,69.45
2022-11-25T17:26:37.586Z,53.97
2022-11-25T17:29:12.137Z,53.65
2022-11-25T17:31:38.955Z,64.93
2022-11-25T17:34:05.970Z,75.90
2022-11-25T17:36:32.370Z,79.40
2022-11-25T17:38:58.849Z,81.55
2022-11-25T17:41:36.737Z,67.60
2022-11-25T17:44:06.144Z,64.57
2022-11-25T17:46:32.624Z,60.70
2022-11-25T17:49:00.360Z,60.97
2022-11-25T17:51:26.776Z,59.10
2022-11-25T17:53:53.338Z,55.90
2022-11-25T17:56:30.268Z,73.22
2022-11-25T17:59:02.275Z,66.30
2022-11-25T18:01:28.800Z,75.18
2022-11-25T18:03:56.020Z,76.43
2022-11-25T18:06:23.287Z,69.57
2022-11-25T18:08:49.794Z,62.92
2022-11-25T18:11:19.493Z,63.40
2022-11-25T18:13:47.533Z,76.30
2022-11-25T18:16:18.043Z,86.75
2022-11-25T18:18:44.505Z,75.70
2022-11-25T18:21:11.840Z,85.40
2022-11-25T18:23:38.300Z,89.07
2022-11-25T18:26:05.071Z,76.85
2022-11-25T18:28:32.448Z,67.00
2022-11-25T18:31:03.150Z,62.97
2022-11-25T18:33:30.067Z,65.88
2022-11-25T18:35:56.508Z,128.13
2022-11-25T18:38:23.218Z,102.03
2022-11-25T18:40:53.520Z,82.43
2022-11-25T18:43:24.601Z,72.47
2022-11-25T18:45:52.518Z,62.92
2022-11-25T18:48:24.030Z,60.25
2022-11-25T18:50:52.248Z,54.95
2022-11-25T18:53:19.007Z,60.60
2022-11-25T18:55:46.813Z,68.50
2022-11-25T18:58:19.216Z,66.43
2022-11-25T19:00:48.578Z,62.25
2022-11-25T19:03:24.308Z,59.03
2022-11-25T19:05:52.034Z,61.70
2022-11-25T19:08:18.687Z,62.72
2022-11-25T19:10:47.085Z,66.18
2022-11-25T19:13:32.931Z,66.05
2022-11-25T19:16:08.010Z,60.92
2022-11-25T19:18:35.256Z,63.78
2022-11-25T19:21:01.720Z,62.30
2022-11-25T19:23:28.818Z,58.97
2022-11-25T19:26:00.963Z,59.35
2022-11-25T19:28:29.312Z,58.00
2022-11-25T19:31:00.290Z,61.30
2022-11-25T19:33:30.674Z,58.83
2022-11-25T19:35:58.378Z,56.97
2022-11-25T19:38:26.016Z,53.53
2022-11-25T19:40:53.642Z,47.55
2022-11-25T19:43:20.467Z,50.88
2022-11-25T19:45:47.052Z,48.13
2022-11-25T19:48:19.525Z,51.28
2022-11-25T19:50:48.560Z,47.53
2022-11-25T19:53:21.097Z,52.00
2022-11-25T19:55:48.634Z,57.92
2022-11-25T19:58:15.654Z,66.78
2022-11-25T20:00:43.987Z,60.28
2022-11-25T20:03:23.500Z,58.53
2022-11-25T20:05:53.182Z,50.97
2022-11-25T20:08:26.376Z,45.35
2022-11-25T20:10:53.521Z,46.33
2022-11-25T20:13:20.767Z,45.58
2022-11-25T20:15:47.428Z,42.38
2022-11-25T20:18:20.399Z,36.35
2022-11-25T20:20:49.967Z,34.55
2022-11-25T20:23:43.700Z,30.45
2022-11-25T20:26:24.565Z,40.88
2022-11-25T20:28:51.002Z,52.58
2022-11-25T20:31:17.530Z,52.15
2022-11-25T20:33:44.010Z,51.70
2022-11-25T20:36:15.500Z,46.97
2022-11-25T20:41:11.171Z,46.22
2022-11-25T20:43:41.393Z,48.58
2022-11-25T20:46:24.117Z,102.80
2022-11-25T20:48:56.607Z,70.20
2022-11-25T20:51:24.462Z,60.70
2022-11-25T20:54:01.255Z,47.92
2022-11-25T20:56:28.456Z,42.97
2022-11-25T20:58:55.532Z,44.83
2022-11-25T21:01:22.382Z,41.05
2022-11-25T21:03:50.301Z,43.35
2022-11-25T21:06:31.171Z,40.92
2022-11-25T21:09:01.167Z,42.33
2022-11-25T21:11:28.182Z,43.30
2022-11-25T21:13:54.691Z,45.38
2022-11-25T21:16:21.220Z,42.60
2022-11-25T21:18:47.740Z,43.97
2022-11-25T21:21:25.287Z,44.92
2022-11-25T21:23:52.061Z,41.78
2022-11-25T21:26:20.971Z,44.20
2022-11-25T21:28:49.768Z,38.42
2022-11-25T21:31:19.121Z,44.70
2022-11-25T21:33:46.771Z,44.33
2022-11-25T21:36:25.803Z,46.63
2022-11-25T21:39:01.650Z,49.88
2022-11-25T21:41:28.115Z,49.60
2022-11-25T21:43:54.583Z,55.30
2022-11-25T21:46:26.504Z,47.75
2022-11-25T21:48:53.149Z,46.58
2022-11-25T21:51:24.007Z,45.03
2022-11-25T21:53:51.514Z,48.10
2022-11-25T21:56:30.909Z,49.80
2022-11-25T21:58:59.678Z,47.70
2022-11-25T22:01:26.296Z,48.92
2022-11-25T22:03:52.829Z,47.38
2022-11-25T22:06:24.899Z,49.28
2022-11-25T22:08:51.528Z,51.95
2022-11-25T22:11:21.129Z,51.88
2022-11-25T22:13:48.576Z,53.85
2022-11-25T22:16:17.597Z,51.58
2022-11-25T22:18:45.015Z,48.58
2022-11-25T22:21:13.770Z,48.33
2022-11-25T22:23:41.441Z,48.25
2022-11-25T22:26:16.240Z,55.40
2022-11-25T22:28:45.058Z,46.55
2022-11-25T22:31:12.673Z,46.55
2022-11-25T22:33:39.182Z,43.72
2022-11-25T22:36:06.001Z,42.88
2022-11-25T22:38:32.527Z,46.88
2022-11-25T22:41:03.764Z,44.33
2022-11-25T22:43:36.599Z,42.88
2022-11-25T22:46:04.691Z,41.60
2022-11-25T22:48:35.191Z,41.85
2022-11-25T22:51:02.373Z,44.30
2022-11-25T22:53:29.395Z,45.83
2022-11-25T22:55:58.084Z,43.20
2022-11-25T22:58:28.157Z,44.72
2022-11-25T23:00:56.125Z,43.58
2022-11-25T23:03:26.035Z,42.58
2022-11-25T23:05:54.113Z,46.83
2022-11-25T23:08:23.212Z,44.63
2022-11-25T23:10:51.499Z,43.25
2022-11-25T23:13:20.493Z,43.58
2022-11-25T23:16:01.761Z,45.05
2022-11-25T23:18:38.973Z,42.38
2022-11-25T23:21:07.254Z,43.60
2022-11-25T23:23:33.816Z,43.40
2022-11-25T23:26:00.273Z,45.35
2022-11-25T23:28:26.803Z,45.10
2022-11-25T23:30:58.255Z,43.15
2022-11-25T23:33:51.424Z,44.00
2022-11-25T23:36:21.147Z,45.70
2022-11-25T23:38:52.692Z,45.17
2022-11-25T23:43:46.793Z,43.90
2022-11-25T23:46:15.048Z,41.53
2022-11-25T23:48:43.421Z,43.92
2022-11-25T23:51:10.415Z,43.33
2022-11-25T23:53:39.458Z,43.05
2022-11-25T23:56:06.108Z,42.75
2022-11-25T23:58:32.617Z,41.20
